Caswell Beach, North Carolina
Current Conditions -  °F | °C
As of 1:35 AM on Monday 24 Nov 2014 (Local Time) from KSUT Reporting Station
Haze Haze  
Wind Chill: 65°   Ceiling: 700
Heat Index: 65°   Visibility: 3mi
Dew Point: 65°   Wind: 3mph
Humidity: 97%   Direction: 180°S
Pressure: 29.84"   Gusts: NA
Location:  33.9216°N, 78.1244°W
Report Text: KSUT 240635Z AUTO 18003KT 3SM BR SCT001 BKN007 OVC012 19/18 A2984 RMK AO2 T01860181
Loading
Personal Weather Stations






























Interactive Weather Map New forecast layout! Learn more

10-Day Weather Forecast

Advertisements
Track Severe Weather on mobile